sensor_id;sensor_type;location;lat;lon;timestamp;temperature;humidity
51863;DHT22;37900;52.996;6.278;2023-04-03T00:01:15;15.30;76.50
51863;DHT22;37900;52.996;6.278;2023-04-03T00:03:41;15.30;76.50
51863;DHT22;37900;52.996;6.278;2023-04-03T00:06:07;15.30;76.50
51863;DHT22;37900;52.996;6.278;2023-04-03T00:08:35;15.30;76.40
51863;DHT22;37900;52.996;6.278;2023-04-03T00:11:02;15.30;76.30
51863;DHT22;37900;52.996;6.278;2023-04-03T00:13:28;15.30;76.30
51863;DHT22;37900;52.996;6.278;2023-04-03T00:15:54;15.30;76.30
51863;DHT22;37900;52.996;6.278;2023-04-03T00:18:20;15.30;76.30
51863;DHT22;37900;52.996;6.278;2023-04-03T00:20:46;15.30;76.20
51863;DHT22;37900;52.996;6.278;2023-04-03T00:23:12;15.30;76.10
51863;DHT22;37900;52.996;6.278;2023-04-03T00:25:38;15.30;76.10
51863;DHT22;37900;52.996;6.278;2023-04-03T00:28:04;15.30;76.10
51863;DHT22;37900;52.996;6.278;2023-04-03T00:30:31;15.30;76.00
51863;DHT22;37900;52.996;6.278;2023-04-03T00:32:57;15.20;75.90
51863;DHT22;37900;52.996;6.278;2023-04-03T00:35:23;15.20;75.90
51863;DHT22;37900;52.996;6.278;2023-04-03T00:37:54;15.20;75.90
51863;DHT22;37900;52.996;6.278;2023-04-03T00:40:22;15.20;75.80
51863;DHT22;37900;52.996;6.278;2023-04-03T00:42:51;15.20;75.80
51863;DHT22;37900;52.996;6.278;2023-04-03T00:45:30;15.20;75.70
51863;DHT22;37900;52.996;6.278;2023-04-03T00:47:56;15.20;75.70
51863;DHT22;37900;52.996;6.278;2023-04-03T00:50:26;15.20;75.70
51863;DHT22;37900;52.996;6.278;2023-04-03T00:52:52;15.20;75.70
51863;DHT22;37900;52.996;6.278;2023-04-03T00:55:19;15.20;75.60
51863;DHT22;37900;52.996;6.278;2023-04-03T00:57:46;15.20;75.60
51863;DHT22;37900;52.996;6.278;2023-04-03T01:00:14;15.20;75.60
51863;DHT22;37900;52.996;6.278;2023-04-03T01:02:40;15.10;75.50
51863;DHT22;37900;52.996;6.278;2023-04-03T01:05:07;15.20;75.50
51863;DHT22;37900;52.996;6.278;2023-04-03T01:07:33;15.10;75.40
51863;DHT22;37900;52.996;6.278;2023-04-03T01:10:07;15.10;75.30
51863;DHT22;37900;52.996;6.278;2023-04-03T01:12:37;15.10;75.20
51863;DHT22;37900;52.996;6.278;2023-04-03T01:15:08;15.10;75.30
51863;DHT22;37900;52.996;6.278;2023-04-03T01:17:50;15.20;75.30
51863;DHT22;37900;52.996;6.278;2023-04-03T01:25:36;15.20;75.30
51863;DHT22;37900;52.996;6.278;2023-04-03T01:28:04;15.20;75.30
51863;DHT22;37900;52.996;6.278;2023-04-03T01:31:06;15.20;75.30
51863;DHT22;37900;52.996;6.278;2023-04-03T01:33:27;15.20;75.30
51863;DHT22;37900;52.996;6.278;2023-04-03T01:35:53;15.20;75.30
51863;DHT22;37900;52.996;6.278;2023-04-03T01:38:18;15.20;75.30
51863;DHT22;37900;52.996;6.278;2023-04-03T01:40:44;15.20;75.30
51863;DHT22;37900;52.996;6.278;2023-04-03T01:43:10;15.20;75.20
51863;DHT22;37900;52.996;6.278;2023-04-03T01:45:36;15.20;75.20
51863;DHT22;37900;52.996;6.278;2023-04-03T01:48:02;15.20;75.20
51863;DHT22;37900;52.996;6.278;2023-04-03T01:50:28;15.20;75.10
51863;DHT22;37900;52.996;6.278;2023-04-03T01:52:53;15.10;75.00
51863;DHT22;37900;52.996;6.278;2023-04-03T01:55:19;15.10;75.00
51863;DHT22;37900;52.996;6.278;2023-04-03T01:57:45;15.10;75.00
51863;DHT22;37900;52.996;6.278;2023-04-03T02:00:11;15.10;75.00
51863;DHT22;37900;52.996;6.278;2023-04-03T02:02:37;15.10;74.90
51863;DHT22;37900;52.996;6.278;2023-04-03T02:05:03;15.10;74.90
51863;DHT22;37900;52.996;6.278;2023-04-03T02:07:29;15.10;74.90
51863;DHT22;37900;52.996;6.278;2023-04-03T02:09:54;15.10;74.80
51863;DHT22;37900;52.996;6.278;2023-04-03T02:12:21;15.10;74.80
51863;DHT22;37900;52.996;6.278;2023-04-03T02:14:46;15.10;74.80
51863;DHT22;37900;52.996;6.278;2023-04-03T02:17:12;15.10;74.70
51863;DHT22;37900;52.996;6.278;2023-04-03T02:19:38;15.00;74.60
51863;DHT22;37900;52.996;6.278;2023-04-03T02:22:04;15.00;74.60
51863;DHT22;37900;52.996;6.278;2023-04-03T02:24:33;15.00;74.60
51863;DHT22;37900;52.996;6.278;2023-04-03T02:26:59;15.00;74.50
51863;DHT22;37900;52.996;6.278;2023-04-03T02:29:25;15.00;74.50
51863;DHT22;37900;52.996;6.278;2023-04-03T02:31:51;15.10;74.50
51863;DHT22;37900;52.996;6.278;2023-04-03T02:34:17;15.10;74.60
51863;DHT22;37900;52.996;6.278;2023-04-03T02:36:42;15.10;74.60
51863;DHT22;37900;52.996;6.278;2023-04-03T02:39:08;15.10;74.60
51863;DHT22;37900;52.996;6.278;2023-04-03T02:41:34;15.10;74.70
51863;DHT22;37900;52.996;6.278;2023-04-03T02:44:02;15.10;74.60
51863;DHT22;37900;52.996;6.278;2023-04-03T02:46:29;15.10;74.60
51863;DHT22;37900;52.996;6.278;2023-04-03T02:48:54;15.10;74.60
51863;DHT22;37900;52.996;6.278;2023-04-03T02:51:20;15.10;74.60
51863;DHT22;37900;52.996;6.278;2023-04-03T02:53:46;15.10;74.50
51863;DHT22;37900;52.996;6.278;2023-04-03T02:56:12;15.10;74.50
51863;DHT22;37900;52.996;6.278;2023-04-03T02:58:37;15.10;74.60
51863;DHT22;37900;52.996;6.278;2023-04-03T03:01:03;15.00;74.40
51863;DHT22;37900;52.996;6.278;2023-04-03T03:03:29;15.10;74.50
51863;DHT22;37900;52.996;6.278;2023-04-03T03:06:07;15.20;74.50
51863;DHT22;37900;52.996;6.278;2023-04-03T03:08:33;15.10;74.40
51863;DHT22;37900;52.996;6.278;2023-04-03T03:10:58;15.00;74.40
51863;DHT22;37900;52.996;6.278;2023-04-03T03:13:24;15.00;74.90
51863;DHT22;37900;52.996;6.278;2023-04-03T03:15:50;15.00;74.30
51863;DHT22;37900;52.996;6.278;2023-04-03T03:18:16;15.00;74.90
51863;DHT22;37900;52.996;6.278;2023-04-03T03:20:42;15.00;74.20
51863;DHT22;37900;52.996;6.278;2023-04-03T03:23:08;15.00;74.20
51863;DHT22;37900;52.996;6.278;2023-04-03T03:25:37;15.00;74.20
51863;DHT22;37900;52.996;6.278;2023-04-03T03:28:02;15.00;74.10
51863;DHT22;37900;52.996;6.278;2023-04-03T03:30:28;15.00;74.00
51863;DHT22;37900;52.996;6.278;2023-04-03T03:32:54;15.00;74.10
51863;DHT22;37900;52.996;6.278;2023-04-03T03:35:19;15.00;74.10
51863;DHT22;37900;52.996;6.278;2023-04-03T03:37:45;15.10;74.10
51863;DHT22;37900;52.996;6.278;2023-04-03T03:40:11;15.00;74.70
51863;DHT22;37900;52.996;6.278;2023-04-03T03:42:39;15.10;74.20
51863;DHT22;37900;52.996;6.278;2023-04-03T03:45:05;15.00;74.10
51863;DHT22;37900;52.996;6.278;2023-04-03T03:47:31;15.00;74.10
51863;DHT22;37900;52.996;6.278;2023-04-03T03:49:57;15.00;74.10
51863;DHT22;37900;52.996;6.278;2023-04-03T03:52:23;15.00;74.20
51863;DHT22;37900;52.996;6.278;2023-04-03T03:54:48;15.00;74.10
51863;DHT22;37900;52.996;6.278;2023-04-03T03:57:14;15.00;74.10
51863;DHT22;37900;52.996;6.278;2023-04-03T03:59:41;15.00;74.00
51863;DHT22;37900;52.996;6.278;2023-04-03T04:02:07;15.00;74.00
51863;DHT22;37900;52.996;6.278;2023-04-03T04:04:33;15.00;74.00
51863;DHT22;37900;52.996;6.278;2023-04-03T04:06:59;14.90;74.00
51863;DHT22;37900;52.996;6.278;2023-04-03T04:09:26;15.20;74.20
51863;DHT22;37900;52.996;6.278;2023-04-03T04:11:52;15.00;74.00
51863;DHT22;37900;52.996;6.278;2023-04-03T04:14:18;14.90;73.90
51863;DHT22;37900;52.996;6.278;2023-04-03T04:16:46;14.90;73.90
51863;DHT22;37900;52.996;6.278;2023-04-03T04:19:12;14.90;73.90
51863;DHT22;37900;52.996;6.278;2023-04-03T04:21:38;14.90;73.80
51863;DHT22;37900;52.996;6.278;2023-04-03T04:24:05;14.80;73.70
51863;DHT22;37900;52.996;6.278;2023-04-03T04:26:31;14.90;74.30
51863;DHT22;37900;52.996;6.278;2023-04-03T04:28:57;15.00;73.70
51863;DHT22;37900;52.996;6.278;2023-04-03T04:31:22;15.00;73.70
51863;DHT22;37900;52.996;6.278;2023-04-03T04:33:48;15.00;73.70
51863;DHT22;37900;52.996;6.278;2023-04-03T04:36:14;15.00;73.70
51863;DHT22;37900;52.996;6.278;2023-04-03T04:38:40;15.00;73.80
51863;DHT22;37900;52.996;6.278;2023-04-03T04:41:07;15.00;73.80
51863;DHT22;37900;52.996;6.278;2023-04-03T04:43:33;15.00;73.80
51863;DHT22;37900;52.996;6.278;2023-04-03T04:46:09;15.00;73.80
51863;DHT22;37900;52.996;6.278;2023-04-03T04:48:37;15.00;73.70
51863;DHT22;37900;52.996;6.278;2023-04-03T04:51:03;14.90;73.70
51863;DHT22;37900;52.996;6.278;2023-04-03T04:53:29;14.90;73.70
51863;DHT22;37900;52.996;6.278;2023-04-03T04:55:56;14.90;73.70
51863;DHT22;37900;52.996;6.278;2023-04-03T04:58:21;14.90;73.60
51863;DHT22;37900;52.996;6.278;2023-04-03T05:00:47;14.90;73.60
51863;DHT22;37900;52.996;6.278;2023-04-03T05:03:13;15.10;73.70
51863;DHT22;37900;52.996;6.278;2023-04-03T05:05:39;14.90;73.60
51863;DHT22;37900;52.996;6.278;2023-04-03T05:08:05;14.90;73.60
51863;DHT22;37900;52.996;6.278;2023-04-03T05:10:31;14.80;73.50
51863;DHT22;37900;52.996;6.278;2023-04-03T05:12:57;14.90;73.50
51863;DHT22;37900;52.996;6.278;2023-04-03T05:15:23;14.90;73.40
51863;DHT22;37900;52.996;6.278;2023-04-03T05:17:49;14.80;73.30
51863;DHT22;37900;52.996;6.278;2023-04-03T05:20:15;14.80;73.30
51863;DHT22;37900;52.996;6.278;2023-04-03T05:22:41;14.90;73.30
51863;DHT22;37900;52.996;6.278;2023-04-03T05:25:07;14.90;73.30
51863;DHT22;37900;52.996;6.278;2023-04-03T05:27:33;14.90;73.30
51863;DHT22;37900;52.996;6.278;2023-04-03T05:29:59;14.90;73.30
51863;DHT22;37900;52.996;6.278;2023-04-03T05:32:25;14.90;73.40
51863;DHT22;37900;52.996;6.278;2023-04-03T05:34:53;14.90;73.40
51863;DHT22;37900;52.996;6.278;2023-04-03T05:37:19;14.90;73.40
51863;DHT22;37900;52.996;6.278;2023-04-03T05:39:45;14.90;73.40
51863;DHT22;37900;52.996;6.278;2023-04-03T05:42:11;14.90;73.40
51863;DHT22;37900;52.996;6.278;2023-04-03T05:44:37;14.90;73.40
51863;DHT22;37900;52.996;6.278;2023-04-03T05:47:03;14.90;73.40
51863;DHT22;37900;52.996;6.278;2023-04-03T05:49:29;14.90;73.40
51863;DHT22;37900;52.996;6.278;2023-04-03T05:51:55;14.80;73.40
51863;DHT22;37900;52.996;6.278;2023-04-03T05:54:26;14.90;73.40
51863;DHT22;37900;52.996;6.278;2023-04-03T05:56:52;14.80;73.40
51863;DHT22;37900;52.996;6.278;2023-04-03T05:59:20;14.80;73.40
51863;DHT22;37900;52.996;6.278;2023-04-03T06:01:46;14.80;73.40
51863;DHT22;37900;52.996;6.278;2023-04-03T06:04:12;14.80;73.70
51863;DHT22;37900;52.996;6.278;2023-04-03T06:06:50;14.80;73.30
51863;DHT22;37900;52.996;6.278;2023-04-03T06:09:18;14.80;73.10
51863;DHT22;37900;52.996;6.278;2023-04-03T06:11:44;14.80;73.10
51863;DHT22;37900;52.996;6.278;2023-04-03T06:14:10;14.80;73.00
51863;DHT22;37900;52.996;6.278;2023-04-03T06:16:36;14.90;73.10
51863;DHT22;37900;52.996;6.278;2023-04-03T06:19:02;14.90;73.10
51863;DHT22;37900;52.996;6.278;2023-04-03T06:21:29;14.90;73.10
51863;DHT22;37900;52.996;6.278;2023-04-03T06:23:55;14.90;73.20
51863;DHT22;37900;52.996;6.278;2023-04-03T06:26:21;14.90;73.20
51863;DHT22;37900;52.996;6.278;2023-04-03T06:28:47;14.90;73.20
51863;DHT22;37900;52.996;6.278;2023-04-03T06:31:13;14.90;73.30
51863;DHT22;37900;52.996;6.278;2023-04-03T06:33:39;14.90;73.30
51863;DHT22;37900;52.996;6.278;2023-04-03T06:36:05;14.90;73.30
51863;DHT22;37900;52.996;6.278;2023-04-03T06:38:32;14.90;73.40
51863;DHT22;37900;52.996;6.278;2023-04-03T06:40:58;14.90;73.60
51863;DHT22;37900;52.996;6.278;2023-04-03T06:43:24;14.90;74.30
51863;DHT22;37900;52.996;6.278;2023-04-03T06:45:53;14.90;74.80
51863;DHT22;37900;52.996;6.278;2023-04-03T06:48:18;14.90;75.30
51863;DHT22;37900;52.996;6.278;2023-04-03T06:50:44;15.00;75.60
51863;DHT22;37900;52.996;6.278;2023-04-03T06:53:10;15.00;75.90
51863;DHT22;37900;52.996;6.278;2023-04-03T06:55:37;15.00;76.10
51863;DHT22;37900;52.996;6.278;2023-04-03T06:58:03;15.00;76.20
51863;DHT22;37900;52.996;6.278;2023-04-03T07:00:30;15.00;76.30
51863;DHT22;37900;52.996;6.278;2023-04-03T07:02:56;15.00;76.50
51863;DHT22;37900;52.996;6.278;2023-04-03T07:05:23;15.00;76.50
51863;DHT22;37900;52.996;6.278;2023-04-03T07:07:49;15.00;76.70
51863;DHT22;37900;52.996;6.278;2023-04-03T07:10:15;15.00;76.70
51863;DHT22;37900;52.996;6.278;2023-04-03T07:12:42;15.00;76.80
51863;DHT22;37900;52.996;6.278;2023-04-03T07:15:08;15.00;76.90
51863;DHT22;37900;52.996;6.278;2023-04-03T07:17:34;15.00;76.90
51863;DHT22;37900;52.996;6.278;2023-04-03T07:20:00;15.00;76.90
51863;DHT22;37900;52.996;6.278;2023-04-03T07:22:25;15.00;77.00
51863;DHT22;37900;52.996;6.278;2023-04-03T07:24:51;15.00;77.10
51863;DHT22;37900;52.996;6.278;2023-04-03T07:27:17;15.00;77.10
51863;DHT22;37900;52.996;6.278;2023-04-03T07:29:43;15.00;77.20
51863;DHT22;37900;52.996;6.278;2023-04-03T07:32:10;15.10;77.30
51863;DHT22;37900;52.996;6.278;2023-04-03T07:34:36;15.10;77.30
51863;DHT22;37900;52.996;6.278;2023-04-03T07:37:02;15.10;77.30
51863;DHT22;37900;52.996;6.278;2023-04-03T07:39:28;15.10;77.40
51863;DHT22;37900;52.996;6.278;2023-04-03T07:41:54;15.10;77.40
51863;DHT22;37900;52.996;6.278;2023-04-03T07:44:23;15.10;77.40
51863;DHT22;37900;52.996;6.278;2023-04-03T07:46:49;15.20;77.60
51863;DHT22;37900;52.996;6.278;2023-04-03T07:49:17;15.20;77.60
51863;DHT22;37900;52.996;6.278;2023-04-03T07:51:44;15.20;77.60
51863;DHT22;37900;52.996;6.278;2023-04-03T07:54:10;15.20;77.60
51863;DHT22;37900;52.996;6.278;2023-04-03T07:56:36;15.20;77.70
51863;DHT22;37900;52.996;6.278;2023-04-03T07:59:02;15.20;77.70
51863;DHT22;37900;52.996;6.278;2023-04-03T08:01:28;15.20;77.70
51863;DHT22;37900;52.996;6.278;2023-04-03T08:03:54;15.20;77.70
51863;DHT22;37900;52.996;6.278;2023-04-03T08:06:20;15.20;77.80
51863;DHT22;37900;52.996;6.278;2023-04-03T08:08:46;15.30;77.90
51863;DHT22;37900;52.996;6.278;2023-04-03T08:11:12;15.30;78.00
51863;DHT22;37900;52.996;6.278;2023-04-03T08:13:38;15.20;78.00
51863;DHT22;37900;52.996;6.278;2023-04-03T08:16:12;15.30;78.10
51863;DHT22;37900;52.996;6.278;2023-04-03T08:18:38;15.30;78.20
51863;DHT22;37900;52.996;6.278;2023-04-03T08:21:09;15.30;78.40
51863;DHT22;37900;52.996;6.278;2023-04-03T08:23:36;15.30;78.60
51863;DHT22;37900;52.996;6.278;2023-04-03T08:26:21;15.40;78.80
51863;DHT22;37900;52.996;6.278;2023-04-03T08:28:47;15.40;79.20
51863;DHT22;37900;52.996;6.278;2023-04-03T08:31:17;15.40;79.90
51863;DHT22;37900;52.996;6.278;2023-04-03T08:33:44;15.40;79.40
51863;DHT22;37900;52.996;6.278;2023-04-03T08:38:45;15.40;79.70
51863;DHT22;37900;52.996;6.278;2023-04-03T08:41:35;15.50;79.80
51863;DHT22;37900;52.996;6.278;2023-04-03T08:49:51;15.50;79.90
51863;DHT22;37900;52.996;6.278;2023-04-03T08:52:22;15.50;80.10
51863;DHT22;37900;52.996;6.278;2023-04-03T08:54:54;15.50;80.10
51863;DHT22;37900;52.996;6.278;2023-04-03T08:57:32;15.50;80.20
51863;DHT22;37900;52.996;6.278;2023-04-03T09:00:03;15.60;80.30
51863;DHT22;37900;52.996;6.278;2023-04-03T09:02:35;15.60;80.40
51863;DHT22;37900;52.996;6.278;2023-04-03T09:06:22;15.60;80.40
51863;DHT22;37900;52.996;6.278;2023-04-03T09:08:31;15.60;80.60
51863;DHT22;37900;52.996;6.278;2023-04-03T09:19:07;15.60;80.50
51863;DHT22;37900;52.996;6.278;2023-04-03T09:21:38;15.70;80.60
51863;DHT22;37900;52.996;6.278;2023-04-03T09:24:05;15.50;80.50
51863;DHT22;37900;52.996;6.278;2023-04-03T09:29:14;15.70;81.00
51863;DHT22;37900;52.996;6.278;2023-04-03T09:31:44;15.50;81.40
51863;DHT22;37900;52.996;6.278;2023-04-03T09:34:27;15.70;81.00
51863;DHT22;37900;52.996;6.278;2023-04-03T09:36:57;15.70;81.10
51863;DHT22;37900;52.996;6.278;2023-04-03T09:39:29;15.70;81.00
51863;DHT22;37900;52.996;6.278;2023-04-03T09:42:04;15.80;81.10
51863;DHT22;37900;52.996;6.278;2023-04-03T09:44:34;15.80;81.10
51863;DHT22;37900;52.996;6.278;2023-04-03T09:47:29;15.80;81.20
51863;DHT22;37900;52.996;6.278;2023-04-03T09:52:40;15.80;81.30
51863;DHT22;37900;52.996;6.278;2023-04-03T09:55:27;15.90;81.30
51863;DHT22;37900;52.996;6.278;2023-04-03T09:57:58;15.80;81.30
51863;DHT22;37900;52.996;6.278;2023-04-03T10:00:36;15.90;81.40
51863;DHT22;37900;52.996;6.278;2023-04-03T10:03:03;15.90;81.40
51863;DHT22;37900;52.996;6.278;2023-04-03T10:05:40;15.90;81.50
51863;DHT22;37900;52.996;6.278;2023-04-03T10:08:21;15.90;81.60
51863;DHT22;37900;52.996;6.278;2023-04-03T10:11:12;15.90;81.70
51863;DHT22;37900;52.996;6.278;2023-04-03T10:13:51;15.90;81.70
51863;DHT22;37900;52.996;6.278;2023-04-03T10:16:25;15.90;81.80
51863;DHT22;37900;52.996;6.278;2023-04-03T10:27:16;15.90;81.70
51863;DHT22;37900;52.996;6.278;2023-04-03T10:32:38;15.90;81.60
51863;DHT22;37900;52.996;6.278;2023-04-03T10:38:05;15.90;81.40
51863;DHT22;37900;52.996;6.278;2023-04-03T10:46:49;16.00;81.20
51863;DHT22;37900;52.996;6.278;2023-04-03T10:49:30;16.10;81.10
51863;DHT22;37900;52.996;6.278;2023-04-03T10:52:10;16.10;80.90
51863;DHT22;37900;52.996;6.278;2023-04-03T10:57:24;16.00;80.60
51863;DHT22;37900;52.996;6.278;2023-04-03T10:59:58;16.00;80.50
51863;DHT22;37900;52.996;6.278;2023-04-03T11:07:52;16.00;80.10
51863;DHT22;37900;52.996;6.278;2023-04-03T11:11:04;16.00;80.00
51863;DHT22;37900;52.996;6.278;2023-04-03T11:16:30;15.90;79.70
51863;DHT22;37900;52.996;6.278;2023-04-03T11:19:05;16.00;79.70
51863;DHT22;37900;52.996;6.278;2023-04-03T11:21:51;15.90;79.50
51863;DHT22;37900;52.996;6.278;2023-04-03T11:24:27;15.90;79.40
51863;DHT22;37900;52.996;6.278;2023-04-03T11:26:56;15.90;79.30
51863;DHT22;37900;52.996;6.278;2023-04-03T11:29:32;15.90;79.20
51863;DHT22;37900;52.996;6.278;2023-04-03T11:32:11;15.90;79.00
51863;DHT22;37900;52.996;6.278;2023-04-03T11:34:45;15.90;78.90
51863;DHT22;37900;52.996;6.278;2023-04-03T11:37:24;16.00;79.00
51863;DHT22;37900;52.996;6.278;2023-04-03T11:40:04;16.00;79.10
51863;DHT22;37900;52.996;6.278;2023-04-03T11:42:39;16.00;79.40
51863;DHT22;37900;52.996;6.278;2023-04-03T11:50:45;16.10;80.60
51863;DHT22;37900;52.996;6.278;2023-04-03T11:58:17;16.10;81.10
51863;DHT22;37900;52.996;6.278;2023-04-03T12:05:50;16.10;81.30
51863;DHT22;37900;52.996;6.278;2023-04-03T12:13:35;16.30;81.20
51863;DHT22;37900;52.996;6.278;2023-04-03T12:16:02;16.10;81.00
51863;DHT22;37900;52.996;6.278;2023-04-03T12:18:42;16.10;80.80
51863;DHT22;37900;52.996;6.278;2023-04-03T12:21:09;16.00;80.60
51863;DHT22;37900;52.996;6.278;2023-04-03T12:23:37;16.00;81.20
51863;DHT22;37900;52.996;6.278;2023-04-03T12:26:24;16.00;80.40
51863;DHT22;37900;52.996;6.278;2023-04-03T12:28:53;16.00;80.30
51863;DHT22;37900;52.996;6.278;2023-04-03T12:31:19;16.00;80.20
51863;DHT22;37900;52.996;6.278;2023-04-03T12:39:44;16.10;80.10
51863;DHT22;37900;52.996;6.278;2023-04-03T12:42:31;16.10;80.00
51863;DHT22;37900;52.996;6.278;2023-04-03T12:45:20;16.10;80.00
51863;DHT22;37900;52.996;6.278;2023-04-03T12:47:49;16.10;80.10
51863;DHT22;37900;52.996;6.278;2023-04-03T12:50:29;16.10;80.30
51863;DHT22;37900;52.996;6.278;2023-04-03T12:53:07;16.10;80.30
51863;DHT22;37900;52.996;6.278;2023-04-03T12:55:37;16.10;80.30
51863;DHT22;37900;52.996;6.278;2023-04-03T12:58:22;16.10;80.40
51863;DHT22;37900;52.996;6.278;2023-04-03T13:01:11;16.10;80.50
51863;DHT22;37900;52.996;6.278;2023-04-03T13:03:40;16.10;80.60
51863;DHT22;37900;52.996;6.278;2023-04-03T13:06:06;16.10;80.70
51863;DHT22;37900;52.996;6.278;2023-04-03T13:08:32;16.10;80.80
51863;DHT22;37900;52.996;6.278;2023-04-03T13:11:04;16.10;80.80
51863;DHT22;37900;52.996;6.278;2023-04-03T13:13:31;16.10;81.00
51863;DHT22;37900;52.996;6.278;2023-04-03T13:15:57;16.10;81.10
51863;DHT22;37900;52.996;6.278;2023-04-03T13:18:32;16.10;81.20
51863;DHT22;37900;52.996;6.278;2023-04-03T13:21:05;16.10;81.30
51863;DHT22;37900;52.996;6.278;2023-04-03T13:23:34;16.10;81.30
51863;DHT22;37900;52.996;6.278;2023-04-03T13:26:01;16.10;81.40
51863;DHT22;37900;52.996;6.278;2023-04-03T13:28:30;16.10;81.40
51863;DHT22;37900;52.996;6.278;2023-04-03T13:31:37;16.20;81.50
51863;DHT22;37900;52.996;6.278;2023-04-03T13:41:52;16.40;81.70
51863;DHT22;37900;52.996;6.278;2023-04-03T13:44:28;16.20;81.40
51863;DHT22;37900;52.996;6.278;2023-04-03T13:47:00;16.30;81.40
51863;DHT22;37900;52.996;6.278;2023-04-03T13:51:52;16.30;81.30
51863;DHT22;37900;52.996;6.278;2023-04-03T13:54:21;16.30;81.30
51863;DHT22;37900;52.996;6.278;2023-04-03T13:56:54;16.30;81.30
51863;DHT22;37900;52.996;6.278;2023-04-03T13:59:35;16.30;81.30
51863;DHT22;37900;52.996;6.278;2023-04-03T14:04:29;16.30;81.30
51863;DHT22;37900;52.996;6.278;2023-04-03T14:06:55;16.20;81.20
51863;DHT22;37900;52.996;6.278;2023-04-03T14:09:23;16.30;81.20
51863;DHT22;37900;52.996;6.278;2023-04-03T14:11:53;16.30;81.20
51863;DHT22;37900;52.996;6.278;2023-04-03T14:14:27;16.20;81.20
51863;DHT22;37900;52.996;6.278;2023-04-03T14:16:59;16.20;81.10
51863;DHT22;37900;52.996;6.278;2023-04-03T14:19:33;16.20;81.10
51863;DHT22;37900;52.996;6.278;2023-04-03T14:22:05;16.20;81.10
51863;DHT22;37900;52.996;6.278;2023-04-03T14:24:32;16.20;81.10
51863;DHT22;37900;52.996;6.278;2023-04-03T14:26:57;16.20;81.10
51863;DHT22;37900;52.996;6.278;2023-04-03T14:29:24;16.20;81.10
51863;DHT22;37900;52.996;6.278;2023-04-03T14:31:51;16.20;81.00
51863;DHT22;37900;52.996;6.278;2023-04-03T14:34:17;16.20;81.00
51863;DHT22;37900;52.996;6.278;2023-04-03T14:36:44;16.20;81.00
51863;DHT22;37900;52.996;6.278;2023-04-03T14:39:16;16.20;80.90
51863;DHT22;37900;52.996;6.278;2023-04-03T14:41:43;16.20;80.80
51863;DHT22;37900;52.996;6.278;2023-04-03T14:44:08;16.30;80.70
51863;DHT22;37900;52.996;6.278;2023-04-03T14:46:36;16.30;80.60
51863;DHT22;37900;52.996;6.278;2023-04-03T14:49:09;16.30;80.60
51863;DHT22;37900;52.996;6.278;2023-04-03T14:51:37;16.30;80.60
51863;DHT22;37900;52.996;6.278;2023-04-03T14:54:05;16.30;80.60
51863;DHT22;37900;52.996;6.278;2023-04-03T14:56:36;16.30;80.60
51863;DHT22;37900;52.996;6.278;2023-04-03T14:59:02;16.30;80.70
51863;DHT22;37900;52.996;6.278;2023-04-03T15:01:28;16.30;80.70
51863;DHT22;37900;52.996;6.278;2023-04-03T15:03:54;16.30;80.80
51863;DHT22;37900;52.996;6.278;2023-04-03T15:06:20;16.30;80.70
51863;DHT22;37900;52.996;6.278;2023-04-03T15:08:47;16.30;80.70
51863;DHT22;37900;52.996;6.278;2023-04-03T15:11:14;16.30;80.60
51863;DHT22;37900;52.996;6.278;2023-04-03T15:13:41;16.30;80.60
51863;DHT22;37900;52.996;6.278;2023-04-03T15:16:16;16.30;80.50
51863;DHT22;37900;52.996;6.278;2023-04-03T15:18:44;16.30;80.50
51863;DHT22;37900;52.996;6.278;2023-04-03T15:21:10;16.30;80.50
51863;DHT22;37900;52.996;6.278;2023-04-03T15:23:36;16.30;80.50
51863;DHT22;37900;52.996;6.278;2023-04-03T15:26:02;16.30;80.40
51863;DHT22;37900;52.996;6.278;2023-04-03T15:28:37;16.20;80.20
51863;DHT22;37900;52.996;6.278;2023-04-03T15:31:05;16.20;79.90
51863;DHT22;37900;52.996;6.278;2023-04-03T15:33:32;16.20;79.70
51863;DHT22;37900;52.996;6.278;2023-04-03T15:35:58;16.20;79.50
51863;DHT22;37900;52.996;6.278;2023-04-03T15:38:23;16.20;79.40
51863;DHT22;37900;52.996;6.278;2023-04-03T15:40:49;16.30;79.30
51863;DHT22;37900;52.996;6.278;2023-04-03T15:43:15;16.30;79.20
51863;DHT22;37900;52.996;6.278;2023-04-03T15:45:42;16.30;79.10
51863;DHT22;37900;52.996;6.278;2023-04-03T15:48:09;16.20;79.00
51863;DHT22;37900;52.996;6.278;2023-04-03T15:50:35;16.30;79.00
51863;DHT22;37900;52.996;6.278;2023-04-03T15:53:01;16.20;78.90
51863;DHT22;37900;52.996;6.278;2023-04-03T15:55:33;16.20;78.80
51863;DHT22;37900;52.996;6.278;2023-04-03T15:58:00;16.20;78.70
51863;DHT22;37900;52.996;6.278;2023-04-03T16:00:27;16.20;78.80
51863;DHT22;37900;52.996;6.278;2023-04-03T16:02:56;16.20;78.70
51863;DHT22;37900;52.996;6.278;2023-04-03T16:05:24;16.20;78.70
51863;DHT22;37900;52.996;6.278;2023-04-03T16:07:52;16.20;78.60
51863;DHT22;37900;52.996;6.278;2023-04-03T16:10:19;16.20;78.60
51863;DHT22;37900;52.996;6.278;2023-04-03T16:12:45;16.20;78.50
51863;DHT22;37900;52.996;6.278;2023-04-03T16:15:11;16.10;78.10
51863;DHT22;37900;52.996;6.278;2023-04-03T16:17:37;16.10;77.80
51863;DHT22;37900;52.996;6.278;2023-04-03T16:20:05;16.20;77.60
51863;DHT22;37900;52.996;6.278;2023-04-03T16:22:32;16.10;77.40
51863;DHT22;37900;52.996;6.278;2023-04-03T16:24:58;16.20;77.30
51863;DHT22;37900;52.996;6.278;2023-04-03T16:27:24;16.20;77.20
51863;DHT22;37900;52.996;6.278;2023-04-03T16:29:54;16.20;77.20
51863;DHT22;37900;52.996;6.278;2023-04-03T16:32:20;16.20;77.20
51863;DHT22;37900;52.996;6.278;2023-04-03T16:34:46;16.20;77.00
51863;DHT22;37900;52.996;6.278;2023-04-03T16:37:12;16.20;77.40
51863;DHT22;37900;52.996;6.278;2023-04-03T16:39:38;16.20;77.40
51863;DHT22;37900;52.996;6.278;2023-04-03T16:42:04;16.20;77.40
51863;DHT22;37900;52.996;6.278;2023-04-03T16:44:29;16.20;77.40
51863;DHT22;37900;52.996;6.278;2023-04-03T16:46:55;16.10;77.40
51863;DHT22;37900;52.996;6.278;2023-04-03T16:49:21;16.30;77.50
51863;DHT22;37900;52.996;6.278;2023-04-03T16:51:48;16.10;77.40
51863;DHT22;37900;52.996;6.278;2023-04-03T16:54:15;16.10;77.40
51863;DHT22;37900;52.996;6.278;2023-04-03T16:56:40;16.10;77.20
51863;DHT22;37900;52.996;6.278;2023-04-03T16:59:06;16.10;76.90
51863;DHT22;37900;52.996;6.278;2023-04-03T17:01:32;16.10;76.80
51863;DHT22;37900;52.996;6.278;2023-04-03T17:03:58;16.10;76.60
51863;DHT22;37900;52.996;6.278;2023-04-03T17:06:24;16.10;76.50
51863;DHT22;37900;52.996;6.278;2023-04-03T17:08:51;16.10;76.50
51863;DHT22;37900;52.996;6.278;2023-04-03T17:11:17;16.20;76.60
51863;DHT22;37900;52.996;6.278;2023-04-03T17:13:43;16.20;76.50
51863;DHT22;37900;52.996;6.278;2023-04-03T17:16:12;16.20;76.60
51863;DHT22;37900;52.996;6.278;2023-04-03T17:18:39;16.20;76.70